sensor_id;sensor_type;location;lat;lon;timestamp;pressure;altitude;pressure_sealevel;temperature
45850;BMP180;10739;52.198;20.908;2024-03-08T00:02:36;101183.00;;;3.20
45850;BMP180;10739;52.198;20.908;2024-03-08T00:05:05;101181.00;;;3.20
45850;BMP180;10739;52.198;20.908;2024-03-08T00:07:31;101172.00;;;3.20
45850;BMP180;10739;52.198;20.908;2024-03-08T00:09:57;101179.00;;;3.30
45850;BMP180;10739;52.198;20.908;2024-03-08T00:12:23;101185.00;;;3.30
45850;BMP180;10739;52.198;20.908;2024-03-08T00:14:51;101184.00;;;3.40
45850;BMP180;10739;52.198;20.908;2024-03-08T00:17:17;101181.00;;;3.40
45850;BMP180;10739;52.198;20.908;2024-03-08T00:19:43;101177.00;;;3.40
45850;BMP180;10739;52.198;20.908;2024-03-08T00:22:09;101179.00;;;3.40
45850;BMP180;10739;52.198;20.908;2024-03-08T00:24:37;101176.00;;;3.20
45850;BMP180;10739;52.198;20.908;2024-03-08T00:27:03;101173.00;;;3.30
45850;BMP180;10739;52.198;20.908;2024-03-08T00:29:30;101175.00;;;3.40
45850;BMP180;10739;52.198;20.908;2024-03-08T00:31:56;101174.00;;;3.40
45850;BMP180;10739;52.198;20.908;2024-03-08T00:34:23;101181.00;;;3.40
45850;BMP180;10739;52.198;20.908;2024-03-08T00:36:50;101172.00;;;3.40
45850;BMP180;10739;52.198;20.908;2024-03-08T00:39:17;101173.00;;;3.30
45850;BMP180;10739;52.198;20.908;2024-03-08T00:41:49;101167.00;;;3.30
45850;BMP180;10739;52.198;20.908;2024-03-08T00:44:16;101171.00;;;3.20
45850;BMP180;10739;52.198;20.908;2024-03-08T00:46:43;101174.00;;;3.20
45850;BMP180;10739;52.198;20.908;2024-03-08T00:49:10;101165.00;;;3.30
45850;BMP180;10739;52.198;20.908;2024-03-08T00:51:36;101171.00;;;3.20
45850;BMP180;10739;52.198;20.908;2024-03-08T00:54:02;101168.00;;;3.10
45850;BMP180;10739;52.198;20.908;2024-03-08T00:56:28;101169.00;;;3.30
45850;BMP180;10739;52.198;20.908;2024-03-08T00:58:54;101161.00;;;3.20
45850;BMP180;10739;52.198;20.908;2024-03-08T01:01:20;101161.00;;;3.20
45850;BMP180;10739;52.198;20.908;2024-03-08T01:03:45;101153.00;;;3.20
45850;BMP180;10739;52.198;20.908;2024-03-08T01:06:12;101158.00;;;3.20
45850;BMP180;10739;52.198;20.908;2024-03-08T01:08:38;101163.00;;;3.20
45850;BMP180;10739;52.198;20.908;2024-03-08T01:11:06;101166.00;;;3.40
45850;BMP180;10739;52.198;20.908;2024-03-08T01:13:32;101164.00;;;3.50
45850;BMP180;10739;52.198;20.908;2024-03-08T01:15:58;101160.00;;;3.60
45850;BMP180;10739;52.198;20.908;2024-03-08T01:18:24;101157.00;;;3.50
45850;BMP180;10739;52.198;20.908;2024-03-08T01:20:50;101158.00;;;3.50
45850;BMP180;10739;52.198;20.908;2024-03-08T01:23:16;101160.00;;;3.50
45850;BMP180;10739;52.198;20.908;2024-03-08T01:25:42;101146.00;;;3.40
45850;BMP180;10739;52.198;20.908;2024-03-08T01:28:09;101149.00;;;3.50
45850;BMP180;10739;52.198;20.908;2024-03-08T01:30:35;101141.00;;;3.50
45850;BMP180;10739;52.198;20.908;2024-03-08T01:33:03;101140.00;;;3.50
45850;BMP180;10739;52.198;20.908;2024-03-08T01:35:29;101144.00;;;3.50
45850;BMP180;10739;52.198;20.908;2024-03-08T01:37:55;101152.00;;;3.50
45850;BMP180;10739;52.198;20.908;2024-03-08T01:40:21;101142.00;;;3.50
45850;BMP180;10739;52.198;20.908;2024-03-08T01:42:48;101147.00;;;3.50
45850;BMP180;10739;52.198;20.908;2024-03-08T01:45:14;101159.00;;;3.50
45850;BMP180;10739;52.198;20.908;2024-03-08T01:47:40;101146.00;;;3.40
45850;BMP180;10739;52.198;20.908;2024-03-08T01:50:07;101146.00;;;3.30
45850;BMP180;10739;52.198;20.908;2024-03-08T01:52:34;101145.00;;;3.30
45850;BMP180;10739;52.198;20.908;2024-03-08T01:55:05;101147.00;;;3.30
45850;BMP180;10739;52.198;20.908;2024-03-08T01:57:33;101141.00;;;3.30
45850;BMP180;10739;52.198;20.908;2024-03-08T02:00:02;101140.00;;;3.30
45850;BMP180;10739;52.198;20.908;2024-03-08T02:02:32;101134.00;;;3.20
45850;BMP180;10739;52.198;20.908;2024-03-08T02:05:01;101136.00;;;3.30
45850;BMP180;10739;52.198;20.908;2024-03-08T02:07:27;101140.00;;;3.30
45850;BMP180;10739;52.198;20.908;2024-03-08T02:09:53;101135.00;;;3.30
45850;BMP180;10739;52.198;20.908;2024-03-08T02:12:20;101131.00;;;3.20
45850;BMP180;10739;52.198;20.908;2024-03-08T02:14:46;101125.00;;;3.20
45850;BMP180;10739;52.198;20.908;2024-03-08T02:17:13;101129.00;;;3.10
45850;BMP180;10739;52.198;20.908;2024-03-08T02:19:38;101121.00;;;3.10
45850;BMP180;10739;52.198;20.908;2024-03-08T02:22:06;101121.00;;;3.10
45850;BMP180;10739;52.198;20.908;2024-03-08T02:24:32;101120.00;;;3.10
45850;BMP180;10739;52.198;20.908;2024-03-08T02:26:59;101118.00;;;3.10
45850;BMP180;10739;52.198;20.908;2024-03-08T02:29:25;101110.00;;;3.10
45850;BMP180;10739;52.198;20.908;2024-03-08T02:31:51;101117.00;;;3.00
45850;BMP180;10739;52.198;20.908;2024-03-08T02:34:17;101110.00;;;3.00
45850;BMP180;10739;52.198;20.908;2024-03-08T02:36:44;101118.00;;;3.00
45850;BMP180;10739;52.198;20.908;2024-03-08T02:39:09;101116.00;;;3.00
45850;BMP180;10739;52.198;20.908;2024-03-08T02:41:36;101118.00;;;2.90
45850;BMP180;10739;52.198;20.908;2024-03-08T02:44:03;101124.00;;;2.80
45850;BMP180;10739;52.198;20.908;2024-03-08T02:46:30;101118.00;;;2.70
45850;BMP180;10739;52.198;20.908;2024-03-08T02:48:56;101121.00;;;2.90
45850;BMP180;10739;52.198;20.908;2024-03-08T02:51:22;101118.00;;;2.90
45850;BMP180;10739;52.198;20.908;2024-03-08T02:53:48;101112.00;;;3.00
45850;BMP180;10739;52.198;20.908;2024-03-08T02:56:15;101110.00;;;2.90
45850;BMP180;10739;52.198;20.908;2024-03-08T02:58:43;101111.00;;;2.90
45850;BMP180;10739;52.198;20.908;2024-03-08T03:01:09;101110.00;;;2.90
45850;BMP180;10739;52.198;20.908;2024-03-08T03:03:36;101106.00;;;2.80
45850;BMP180;10739;52.198;20.908;2024-03-08T03:06:02;101108.00;;;2.80
45850;BMP180;10739;52.198;20.908;2024-03-08T03:08:28;101105.00;;;2.80
45850;BMP180;10739;52.198;20.908;2024-03-08T03:10:54;101108.00;;;2.80
45850;BMP180;10739;52.198;20.908;2024-03-08T03:13:22;101116.00;;;2.80
45850;BMP180;10739;52.198;20.908;2024-03-08T03:15:49;101111.00;;;2.70
45850;BMP180;10739;52.198;20.908;2024-03-08T03:18:15;101118.00;;;2.70
45850;BMP180;10739;52.198;20.908;2024-03-08T03:20:41;101114.00;;;2.70
45850;BMP180;10739;52.198;20.908;2024-03-08T03:23:09;101114.00;;;2.60
45850;BMP180;10739;52.198;20.908;2024-03-08T03:25:35;101104.00;;;2.60
45850;BMP180;10739;52.198;20.908;2024-03-08T03:28:03;101116.00;;;2.60
45850;BMP180;10739;52.198;20.908;2024-03-08T03:30:30;101106.00;;;2.60
45850;BMP180;10739;52.198;20.908;2024-03-08T03:33:03;101110.00;;;2.70
45850;BMP180;10739;52.198;20.908;2024-03-08T03:35:33;101112.00;;;2.70
45850;BMP180;10739;52.198;20.908;2024-03-08T03:37:59;101112.00;;;2.60
45850;BMP180;10739;52.198;20.908;2024-03-08T03:40:33;101094.00;;;2.70
45850;BMP180;10739;52.198;20.908;2024-03-08T03:43:01;101103.00;;;2.60
45850;BMP180;10739;52.198;20.908;2024-03-08T03:45:29;101100.00;;;2.70
45850;BMP180;10739;52.198;20.908;2024-03-08T03:47:55;101100.00;;;2.70
45850;BMP180;10739;52.198;20.908;2024-03-08T03:50:21;101094.00;;;2.70
45850;BMP180;10739;52.198;20.908;2024-03-08T03:52:50;101094.00;;;2.70
45850;BMP180;10739;52.198;20.908;2024-03-08T03:55:16;101092.00;;;2.70
45850;BMP180;10739;52.198;20.908;2024-03-08T03:57:42;101101.00;;;2.80
45850;BMP180;10739;52.198;20.908;2024-03-08T04:00:12;101082.00;;;2.70
45850;BMP180;10739;52.198;20.908;2024-03-08T04:02:39;101089.00;;;2.80
45850;BMP180;10739;52.198;20.908;2024-03-08T04:05:07;101074.00;;;2.70
45850;BMP180;10739;52.198;20.908;2024-03-08T04:07:34;101087.00;;;2.70
45850;BMP180;10739;52.198;20.908;2024-03-08T04:10:02;101084.00;;;2.70
45850;BMP180;10739;52.198;20.908;2024-03-08T04:12:29;101086.00;;;2.70
45850;BMP180;10739;52.198;20.908;2024-03-08T04:14:56;101078.00;;;2.70
45850;BMP180;10739;52.198;20.908;2024-03-08T04:17:22;101081.00;;;2.70
45850;BMP180;10739;52.198;20.908;2024-03-08T04:19:50;101082.00;;;2.70
45850;BMP180;10739;52.198;20.908;2024-03-08T04:22:16;101077.00;;;2.70
45850;BMP180;10739;52.198;20.908;2024-03-08T04:24:44;101075.00;;;2.70
45850;BMP180;10739;52.198;20.908;2024-03-08T04:27:11;101083.00;;;2.60
45850;BMP180;10739;52.198;20.908;2024-03-08T04:29:37;101081.00;;;2.60
45850;BMP180;10739;52.198;20.908;2024-03-08T04:32:05;101076.00;;;2.60
45850;BMP180;10739;52.198;20.908;2024-03-08T04:34:32;101082.00;;;2.60
45850;BMP180;10739;52.198;20.908;2024-03-08T04:37:01;101073.00;;;2.60
45850;BMP180;10739;52.198;20.908;2024-03-08T04:39:27;101084.00;;;2.50
45850;BMP180;10739;52.198;20.908;2024-03-08T04:41:58;101081.00;;;2.50
45850;BMP180;10739;52.198;20.908;2024-03-08T04:44:25;101077.00;;;2.50
45850;BMP180;10739;52.198;20.908;2024-03-08T04:46:51;101083.00;;;2.50
45850;BMP180;10739;52.198;20.908;2024-03-08T04:49:17;101076.00;;;2.50
45850;BMP180;10739;52.198;20.908;2024-03-08T04:51:42;101075.00;;;2.40
45850;BMP180;10739;52.198;20.908;2024-03-08T04:54:10;101078.00;;;2.40
45850;BMP180;10739;52.198;20.908;2024-03-08T04:56:36;101075.00;;;2.40
45850;BMP180;10739;52.198;20.908;2024-03-08T04:59:02;101080.00;;;2.30
45850;BMP180;10739;52.198;20.908;2024-03-08T05:01:28;101080.00;;;2.30
45850;BMP180;10739;52.198;20.908;2024-03-08T05:03:54;101076.00;;;2.30
45850;BMP180;10739;52.198;20.908;2024-03-08T05:06:21;101075.00;;;2.30
45850;BMP180;10739;52.198;20.908;2024-03-08T05:08:47;101083.00;;;2.30
45850;BMP180;10739;52.198;20.908;2024-03-08T05:11:13;101080.00;;;2.30
45850;BMP180;10739;52.198;20.908;2024-03-08T05:13:41;101083.00;;;2.40
45850;BMP180;10739;52.198;20.908;2024-03-08T05:16:07;101083.00;;;2.30
45850;BMP180;10739;52.198;20.908;2024-03-08T05:18:34;101089.00;;;2.40
45850;BMP180;10739;52.198;20.908;2024-03-08T05:21:01;101082.00;;;2.30
45850;BMP180;10739;52.198;20.908;2024-03-08T05:23:30;101079.00;;;2.40
45850;BMP180;10739;52.198;20.908;2024-03-08T05:25:56;101085.00;;;2.40
45850;BMP180;10739;52.198;20.908;2024-03-08T05:28:23;101070.00;;;2.40
45850;BMP180;10739;52.198;20.908;2024-03-08T05:30:48;101082.00;;;2.50
45850;BMP180;10739;52.198;20.908;2024-03-08T05:33:14;101076.00;;;2.40
45850;BMP180;10739;52.198;20.908;2024-03-08T05:35:40;101084.00;;;2.50
45850;BMP180;10739;52.198;20.908;2024-03-08T05:38:06;101081.00;;;2.50
45850;BMP180;10739;52.198;20.908;2024-03-08T05:40:33;101078.00;;;2.50
45850;BMP180;10739;52.198;20.908;2024-03-08T05:42:59;101077.00;;;2.60
45850;BMP180;10739;52.198;20.908;2024-03-08T05:45:26;101078.00;;;2.60
45850;BMP180;10739;52.198;20.908;2024-03-08T05:47:54;101076.00;;;2.60
45850;BMP180;10739;52.198;20.908;2024-03-08T05:50:20;101079.00;;;2.70
45850;BMP180;10739;52.198;20.908;2024-03-08T05:52:46;101082.00;;;2.70
45850;BMP180;10739;52.198;20.908;2024-03-08T05:55:15;101071.00;;;2.80
45850;BMP180;10739;52.198;20.908;2024-03-08T05:57:42;101072.00;;;2.80
45850;BMP180;10739;52.198;20.908;2024-03-08T06:00:09;101071.00;;;2.90
45850;BMP180;10739;52.198;20.908;2024-03-08T06:02:42;101073.00;;;2.90
45850;BMP180;10739;52.198;20.908;2024-03-08T06:05:11;101073.00;;;2.90
45850;BMP180;10739;52.198;20.908;2024-03-08T06:07:40;101077.00;;;3.00
45850;BMP180;10739;52.198;20.908;2024-03-08T06:10:11;101074.00;;;3.10
45850;BMP180;10739;52.198;20.908;2024-03-08T06:12:42;101077.00;;;3.20
45850;BMP180;10739;52.198;20.908;2024-03-08T06:15:09;101079.00;;;3.20
45850;BMP180;10739;52.198;20.908;2024-03-08T06:17:36;101073.00;;;3.30
45850;BMP180;10739;52.198;20.908;2024-03-08T06:20:03;101069.00;;;3.30
45850;BMP180;10739;52.198;20.908;2024-03-08T06:22:42;101086.00;;;3.30
45850;BMP180;10739;52.198;20.908;2024-03-08T06:25:09;101075.00;;;3.40
45850;BMP180;10739;52.198;20.908;2024-03-08T06:27:37;101085.00;;;3.50
45850;BMP180;10739;52.198;20.908;2024-03-08T06:30:03;101080.00;;;3.50
45850;BMP180;10739;52.198;20.908;2024-03-08T06:32:31;101082.00;;;3.60
45850;BMP180;10739;52.198;20.908;2024-03-08T06:35:04;101078.00;;;3.60
45850;BMP180;10739;52.198;20.908;2024-03-08T06:37:33;101082.00;;;3.70
45850;BMP180;10739;52.198;20.908;2024-03-08T06:39:59;101087.00;;;3.90
45850;BMP180;10739;52.198;20.908;2024-03-08T06:42:27;101091.00;;;3.90
45850;BMP180;10739;52.198;20.908;2024-03-08T06:44:54;101076.00;;;4.00
45850;BMP180;10739;52.198;20.908;2024-03-08T06:47:22;101083.00;;;4.10
45850;BMP180;10739;52.198;20.908;2024-03-08T06:49:51;101085.00;;;4.20
45850;BMP180;10739;52.198;20.908;2024-03-08T06:52:18;101088.00;;;4.30
45850;BMP180;10739;52.198;20.908;2024-03-08T06:54:44;101088.00;;;4.40
45850;BMP180;10739;52.198;20.908;2024-03-08T06:57:09;101084.00;;;4.50
45850;BMP180;10739;52.198;20.908;2024-03-08T06:59:36;101082.00;;;4.60
45850;BMP180;10739;52.198;20.908;2024-03-08T07:02:02;101075.00;;;4.70
45850;BMP180;10739;52.198;20.908;2024-03-08T07:04:29;101078.00;;;4.70
45850;BMP180;10739;52.198;20.908;2024-03-08T07:06:56;101081.00;;;4.90
45850;BMP180;10739;52.198;20.908;2024-03-08T07:09:24;101079.00;;;5.00
45850;BMP180;10739;52.198;20.908;2024-03-08T07:11:51;101080.00;;;5.00
45850;BMP180;10739;52.198;20.908;2024-03-08T07:14:23;101081.00;;;5.10
45850;BMP180;10739;52.198;20.908;2024-03-08T07:16:50;101079.00;;;5.20
45850;BMP180;10739;52.198;20.908;2024-03-08T07:19:17;101076.00;;;5.60
45850;BMP180;10739;52.198;20.908;2024-03-08T07:21:43;101068.00;;;6.80
45850;BMP180;10739;52.198;20.908;2024-03-08T07:24:13;101069.00;;;8.10
45850;BMP180;10739;52.198;20.908;2024-03-08T07:26:45;101064.00;;;9.20
45850;BMP180;10739;52.198;20.908;2024-03-08T07:29:15;101069.00;;;10.10
45850;BMP180;10739;52.198;20.908;2024-03-08T07:31:41;101064.00;;;10.90
45850;BMP180;10739;52.198;20.908;2024-03-08T07:34:07;101062.00;;;11.60
45850;BMP180;10739;52.198;20.908;2024-03-08T07:36:34;101066.00;;;10.70
45850;BMP180;10739;52.198;20.908;2024-03-08T07:39:03;101061.00;;;11.90
45850;BMP180;10739;52.198;20.908;2024-03-08T07:41:31;101066.00;;;12.60
45850;BMP180;10739;52.198;20.908;2024-03-08T07:43:57;101067.00;;;13.00
45850;BMP180;10739;52.198;20.908;2024-03-08T07:46:23;101065.00;;;13.40
45850;BMP180;10739;52.198;20.908;2024-03-08T07:48:49;101060.00;;;13.40
45850;BMP180;10739;52.198;20.908;2024-03-08T07:51:18;101065.00;;;13.20
45850;BMP180;10739;52.198;20.908;2024-03-08T07:53:44;101066.00;;;12.70
45850;BMP180;10739;52.198;20.908;2024-03-08T07:56:10;101059.00;;;11.90
45850;BMP180;10739;52.198;20.908;2024-03-08T07:58:39;101056.00;;;12.20
45850;BMP180;10739;52.198;20.908;2024-03-08T08:01:16;101059.00;;;11.80
45850;BMP180;10739;52.198;20.908;2024-03-08T08:03:41;101056.00;;;11.80
45850;BMP180;10739;52.198;20.908;2024-03-08T08:06:08;101055.00;;;12.30
45850;BMP180;10739;52.198;20.908;2024-03-08T08:08:34;101046.00;;;12.00
45850;BMP180;10739;52.198;20.908;2024-03-08T08:11:00;101051.00;;;11.80
45850;BMP180;10739;52.198;20.908;2024-03-08T08:13:27;101051.00;;;12.70
45850;BMP180;10739;52.198;20.908;2024-03-08T08:15:53;101047.00;;;13.60
45850;BMP180;10739;52.198;20.908;2024-03-08T08:18:19;101058.00;;;13.20
45850;BMP180;10739;52.198;20.908;2024-03-08T08:20:50;101048.00;;;14.80
45850;BMP180;10739;52.198;20.908;2024-03-08T08:23:16;101042.00;;;15.20
45850;BMP180;10739;52.198;20.908;2024-03-08T08:25:42;101037.00;;;16.00
45850;BMP180;10739;52.198;20.908;2024-03-08T08:28:08;101046.00;;;16.20
45850;BMP180;10739;52.198;20.908;2024-03-08T08:30:34;101039.00;;;15.40
45850;BMP180;10739;52.198;20.908;2024-03-08T08:33:00;101047.00;;;16.20
45850;BMP180;10739;52.198;20.908;2024-03-08T08:35:26;101039.00;;;15.10
45850;BMP180;10739;52.198;20.908;2024-03-08T08:37:52;101036.00;;;15.50
45850;BMP180;10739;52.198;20.908;2024-03-08T08:40:18;101034.00;;;15.90
45850;BMP180;10739;52.198;20.908;2024-03-08T08:42:44;101033.00;;;16.00
45850;BMP180;10739;52.198;20.908;2024-03-08T08:45:11;101033.00;;;16.40
45850;BMP180;10739;52.198;20.908;2024-03-08T08:47:37;101031.00;;;16.70
45850;BMP180;10739;52.198;20.908;2024-03-08T08:50:04;101036.00;;;16.30
45850;BMP180;10739;52.198;20.908;2024-03-08T08:52:31;101034.00;;;15.90
45850;BMP180;10739;52.198;20.908;2024-03-08T08:54:58;101027.00;;;15.30
45850;BMP180;10739;52.198;20.908;2024-03-08T08:57:24;101027.00;;;16.90
45850;BMP180;10739;52.198;20.908;2024-03-08T08:59:50;101028.00;;;17.00
45850;BMP180;10739;52.198;20.908;2024-03-08T09:02:16;101021.00;;;18.10
45850;BMP180;10739;52.198;20.908;2024-03-08T09:04:43;101014.00;;;18.90
45850;BMP180;10739;52.198;20.908;2024-03-08T09:07:15;101024.00;;;18.10
45850;BMP180;10739;52.198;20.908;2024-03-08T09:09:48;101025.00;;;18.30
45850;BMP180;10739;52.198;20.908;2024-03-08T09:12:14;101019.00;;;18.60
45850;BMP180;10739;52.198;20.908;2024-03-08T09:14:43;101021.00;;;18.60
45850;BMP180;10739;52.198;20.908;2024-03-08T09:17:09;101026.00;;;19.00
45850;BMP180;10739;52.198;20.908;2024-03-08T09:19:35;101018.00;;;18.10
45850;BMP180;10739;52.198;20.908;2024-03-08T09:22:04;101025.00;;;18.40
45850;BMP180;10739;52.198;20.908;2024-03-08T09:24:30;101018.00;;;18.50
45850;BMP180;10739;52.198;20.908;2024-03-08T09:26:57;101019.00;;;19.80
45850;BMP180;10739;52.198;20.908;2024-03-08T09:29:24;101019.00;;;19.00
45850;BMP180;10739;52.198;20.908;2024-03-08T09:31:51;101009.00;;;19.00
45850;BMP180;10739;52.198;20.908;2024-03-08T09:34:17;101016.00;;;18.60
45850;BMP180;10739;52.198;20.908;2024-03-08T09:36:45;101011.00;;;18.30
45850;BMP180;10739;52.198;20.908;2024-03-08T09:39:10;101007.00;;;18.80
45850;BMP180;10739;52.198;20.908;2024-03-08T09:41:46;101003.00;;;19.90
45850;BMP180;10739;52.198;20.908;2024-03-08T09:44:16;101006.00;;;21.20
45850;BMP180;10739;52.198;20.908;2024-03-08T09:46:42;101002.00;;;21.00
45850;BMP180;10739;52.198;20.908;2024-03-08T09:49:08;101008.00;;;19.70
45850;BMP180;10739;52.198;20.908;2024-03-08T09:51:38;101011.00;;;19.10
45850;BMP180;10739;52.198;20.908;2024-03-08T09:54:06;101010.00;;;18.50
45850;BMP180;10739;52.198;20.908;2024-03-08T09:56:36;101012.00;;;16.70
45850;BMP180;10739;52.198;20.908;2024-03-08T09:59:02;101005.00;;;15.80
45850;BMP180;10739;52.198;20.908;2024-03-08T10:01:37;101008.00;;;13.90
45850;BMP180;10739;52.198;20.908;2024-03-08T10:04:07;101010.00;;;13.50
45850;BMP180;10739;52.198;20.908;2024-03-08T10:06:36;101012.00;;;13.10
45850;BMP180;10739;52.198;20.908;2024-03-08T10:09:02;101009.00;;;12.30
45850;BMP180;10739;52.198;20.908;2024-03-08T10:11:28;101011.00;;;12.20
45850;BMP180;10739;52.198;20.908;2024-03-08T10:13:54;101015.00;;;12.30
45850;BMP180;10739;52.198;20.908;2024-03-08T10:16:20;101012.00;;;12.40
45850;BMP180;10739;52.198;20.908;2024-03-08T10:18:47;101003.00;;;11.80
45850;BMP180;10739;52.198;20.908;2024-03-08T10:21:13;101006.00;;;11.40
45850;BMP180;10739;52.198;20.908;2024-03-08T10:23:41;101006.00;;;11.60
45850;BMP180;10739;52.198;20.908;2024-03-08T10:26:16;101001.00;;;11.40
45850;BMP180;10739;52.198;20.908;2024-03-08T10:28:52;100995.00;;;11.10
45850;BMP180;10739;52.198;20.908;2024-03-08T10:31:21;100986.00;;;11.10
45850;BMP180;10739;52.198;20.908;2024-03-08T10:33:47;100994.00;;;11.30
45850;BMP180;10739;52.198;20.908;2024-03-08T10:36:14;100989.00;;;11.20
45850;BMP180;10739;52.198;20.908;2024-03-08T10:38:44;100993.00;;;10.90
45850;BMP180;10739;52.198;20.908;2024-03-08T10:41:13;100989.00;;;11.00
45850;BMP180;10739;52.198;20.908;2024-03-08T10:50:10;100986.00;;;10.90
45850;BMP180;10739;52.198;20.908;2024-03-08T10:52:39;100985.00;;;10.50
45850;BMP180;10739;52.198;20.908;2024-03-08T10:55:09;100988.00;;;10.60
45850;BMP180;10739;52.198;20.908;2024-03-08T10:57:39;100980.00;;;10.10
45850;BMP180;10739;52.198;20.908;2024-03-08T11:00:08;100969.00;;;10.50
45850;BMP180;10739;52.198;20.908;2024-03-08T11:02:37;100974.00;;;10.60
45850;BMP180;10739;52.198;20.908;2024-03-08T11:05:11;100977.00;;;10.90
45850;BMP180;10739;52.198;20.908;2024-03-08T11:07:44;100974.00;;;10.50
45850;BMP180;10739;52.198;20.908;2024-03-08T11:10:19;100974.00;;;10.30
45850;BMP180;10739;52.198;20.908;2024-03-08T11:12:46;100967.00;;;10.50
45850;BMP180;10739;52.198;20.908;2024-03-08T11:15:14;100974.00;;;10.70
45850;BMP180;10739;52.198;20.908;2024-03-08T11:17:45;100970.00;;;11.00
45850;BMP180;10739;52.198;20.908;2024-03-08T11:20:20;100965.00;;;10.90
45850;BMP180;10739;52.198;20.908;2024-03-08T11:22:59;100956.00;;;10.90
45850;BMP180;10739;52.198;20.908;2024-03-08T11:25:39;100961.00;;;11.10
45850;BMP180;10739;52.198;20.908;2024-03-08T11:28:14;100950.00;;;11.20
45850;BMP180;10739;52.198;20.908;2024-03-08T11:30:44;100955.00;;;10.80
45850;BMP180;10739;52.198;20.908;2024-03-08T11:33:16;100946.00;;;10.80
45850;BMP180;10739;52.198;20.908;2024-03-08T11:35:43;100943.00;;;11.00
45850;BMP180;10739;52.198;20.908;2024-03-08T11:38:12;100946.00;;;11.00
45850;BMP180;10739;52.198;20.908;2024-03-08T11:40:39;100945.00;;;11.30
45850;BMP180;10739;52.198;20.908;2024-03-08T11:43:06;100938.00;;;11.10
45850;BMP180;10739;52.198;20.908;2024-03-08T11:45:34;100940.00;;;11.10
45850;BMP180;10739;52.198;20.908;2024-03-08T11:48:04;100936.00;;;11.40
45850;BMP180;10739;52.198;20.908;2024-03-08T11:50:31;100942.00;;;11.10
45850;BMP180;10739;52.198;20.908;2024-03-08T11:53:04;100932.00;;;11.10
45850;BMP180;10739;52.198;20.908;2024-03-08T11:55:33;100936.00;;;11.20
45850;BMP180;10739;52.198;20.908;2024-03-08T11:58:05;100925.00;;;11.50
45850;BMP180;10739;52.198;20.908;2024-03-08T12:00:34;100923.00;;;11.30
45850;BMP180;10739;52.198;20.908;2024-03-08T12:03:08;100919.00;;;10.90
45850;BMP180;10739;52.198;20.908;2024-03-08T12:05:36;100923.00;;;10.50
45850;BMP180;10739;52.198;20.908;2024-03-08T12:08:05;100920.00;;;11.00
45850;BMP180;10739;52.198;20.908;2024-03-08T12:10:33;100917.00;;;11.10
45850;BMP180;10739;52.198;20.908;2024-03-08T12:13:01;100915.00;;;11.10
45850;BMP180;10739;52.198;20.908;2024-03-08T12:15:31;100910.00;;;11.20
45850;BMP180;10739;52.198;20.908;2024-03-08T12:17:59;100911.00;;;11.20
45850;BMP180;10739;52.198;20.908;2024-03-08T12:20:28;100907.00;;;11.20
45850;BMP180;10739;52.198;20.908;2024-03-08T12:22:55;100905.00;;;10.90
45850;BMP180;10739;52.198;20.908;2024-03-08T12:25:32;100909.00;;;11.20
45850;BMP180;10739;52.198;20.908;2024-03-08T12:28:11;100901.00;;;11.30
45850;BMP180;10739;52.198;20.908;2024-03-08T12:30:51;100896.00;;;11.60
45850;BMP180;10739;52.198;20.908;2024-03-08T12:33:20;100890.00;;;11.40
45850;BMP180;10739;52.198;20.908;2024-03-08T12:35:54;100896.00;;;11.20
45850;BMP180;10739;52.198;20.908;2024-03-08T12:38:22;100896.00;;;11.50
45850;BMP180;10739;52.198;20.908;2024-03-08T12:40:55;100894.00;;;11.20
45850;BMP180;10739;52.198;20.908;2024-03-08T12:43:21;100884.00;;;11.30
45850;BMP180;10739;52.198;20.908;2024-03-08T12:45:47;100870.00;;;11.40
45850;BMP180;10739;52.198;20.908;2024-03-08T12:48:14;100875.00;;;11.50
45850;BMP180;10739;52.198;20.908;2024-03-08T12:50:41;100876.00;;;11.70
45850;BMP180;10739;52.198;20.908;2024-03-08T12:53:11;100872.00;;;11.50
45850;BMP180;10739;52.198;20.908;2024-03-08T12:55:37;100866.00;;;11.30
45850;BMP180;10739;52.198;20.908;2024-03-08T12:58:04;100859.00;;;11.50
45850;BMP180;10739;52.198;20.908;2024-03-08T13:00:34;100869.00;;;11.60
45850;BMP180;10739;52.198;20.908;2024-03-08T13:03:02;100863.00;;;11.40
45850;BMP180;10739;52.198;20.908;2024-03-08T13:05:28;100861.00;;;11.70
45850;BMP180;10739;52.198;20.908;2024-03-08T13:07:55;100853.00;;;11.60
45850;BMP180;10739;52.198;20.908;2024-03-08T13:10:22;100855.00;;;11.50
45850;BMP180;10739;52.198;20.908;2024-03-08T13:12:48;100855.00;;;11.50
45850;BMP180;10739;52.198;20.908;2024-03-08T13:15:15;100854.00;;;11.70
45850;BMP180;10739;52.198;20.908;2024-03-08T13:17:43;100845.00;;;11.60
45850;BMP180;10739;52.198;20.908;2024-03-08T13:20:10;100839.00;;;11.40
45850;BMP180;10739;52.198;20.908;2024-03-08T13:22:42;100832.00;;;11.30
45850;BMP180;10739;52.198;20.908;2024-03-08T13:25:08;100829.00;;;11.50
45850;BMP180;10739;52.198;20.908;2024-03-08T13:27:42;100820.00;;;11.60
45850;BMP180;10739;52.198;20.908;2024-03-08T13:30:14;100832.00;;;11.60
45850;BMP180;10739;52.198;20.908;2024-03-08T13:32:44;100825.00;;;12.10
45850;BMP180;10739;52.198;20.908;2024-03-08T13:35:11;100820.00;;;12.20
45850;BMP180;10739;52.198;20.908;2024-03-08T13:37:42;100818.00;;;11.90
45850;BMP180;10739;52.198;20.908;2024-03-08T13:40:10;100823.00;;;12.10
45850;BMP180;10739;52.198;20.908;2024-03-08T13:42:40;100813.00;;;12.00
45850;BMP180;10739;52.198;20.908;2024-03-08T13:45:10;100810.00;;;12.00
45850;BMP180;10739;52.198;20.908;2024-03-08T13:47:41;100805.00;;;11.90
45850;BMP180;10739;52.198;20.908;2024-03-08T13:50:08;100804.00;;;11.80
45850;BMP180;10739;52.198;20.908;2024-03-08T13:52:39;100803.00;;;12.00
45850;BMP180;10739;52.198;20.908;2024-03-08T13:55:06;100803.00;;;12.30
45850;BMP180;10739;52.198;20.908;2024-03-08T13:57:33;100803.00;;;12.30
45850;BMP180;10739;52.198;20.908;2024-03-08T13:59:59;100804.00;;;12.30
45850;BMP180;10739;52.198;20.908;2024-03-08T14:02:26;100803.00;;;12.30